Time;durP1;ratioP1;P1;durP2;ratioP2;P2;SDS_P1;SDS_P2;PMS_P1;PMS_P2;Temp;Humidity;BMP_temperature;BMP_pressure;BME280_temperature;BME280_humidity;BME280_pressure;Samples;Min_cycle;Max_cycle;Signal;HPM_P1;HPM_P2
2021/10/30 00:01:20;;;;;;;;;;;20.20;72.70;;;;;;4259560;27;19927;-71
2021/10/30 00:03:23;;;;;;;;;;;20.20;72.70;;;;;;4249234;27;19923;-71
2021/10/30 00:05:25;;;;;;;;;;;20.20;72.60;;;;;;4251022;27;19926;-71
2021/10/30 00:07:28;;;;;;;;;;;20.20;72.70;;;;;;4254095;27;20324;-71
2021/10/30 00:09:31;;;;;;;;;;;20.20;72.70;;;;;;4266840;27;19944;-71
2021/10/30 00:11:34;;;;;;;;;;;20.20;72.60;;;;;;4239174;27;20460;-72
2021/10/30 00:13:36;;;;;;;;;;;20.20;72.70;;;;;;4263959;27;19980;-71
2021/10/30 00:15:39;;;;;;;;;;;20.20;72.70;;;;;;4263155;27;19919;-72
2021/10/30 00:17:43;;;;;;;;;;;20.10;72.70;;;;;;4254780;27;19919;-72
2021/10/30 00:19:46;;;;;;;;;;;20.20;72.70;;;;;;4266749;27;19971;-71
2021/10/30 00:21:52;;;;;;;;;;;20.10;72.70;;;;;;4255192;27;20407;-72
2021/10/30 00:23:55;;;;;;;;;;;20.20;72.80;;;;;;4260411;27;20332;-72
2021/10/30 00:25:58;;;;;;;;;;;20.10;72.70;;;;;;4262668;27;19924;-72
2021/10/30 00:28:00;;;;;;;;;;;20.20;72.80;;;;;;4252595;27;19918;-72
2021/10/30 00:30:04;;;;;;;;;;;20.10;72.70;;;;;;4264668;27;19919;-72
2021/10/30 00:32:07;;;;;;;;;;;20.10;72.80;;;;;;4255633;27;19919;-71
2021/10/30 00:34:12;;;;;;;;;;;20.10;72.80;;;;;;4259517;27;20416;-72
2021/10/30 00:36:15;;;;;;;;;;;20.10;72.80;;;;;;4262088;27;19923;-72
2021/10/30 00:38:18;;;;;;;;;;;20.10;72.80;;;;;;4258128;27;19919;-70
2021/10/30 00:40:21;;;;;;;;;;;20.10;72.90;;;;;;4264125;27;19923;-72
2021/10/30 00:42:24;;;;;;;;;;;20.10;72.80;;;;;;4256387;27;19984;-70
2021/10/30 00:44:26;;;;;;;;;;;20.10;72.90;;;;;;4259051;27;19930;-72
2021/10/30 00:46:29;;;;;;;;;;;20.00;72.90;;;;;;4262556;27;20419;-73
2021/10/30 00:48:32;;;;;;;;;;;20.10;72.90;;;;;;4252575;27;19919;-74
2021/10/30 00:50:36;;;;;;;;;;;20.10;72.90;;;;;;4263758;27;19923;-69
2021/10/30 00:52:39;;;;;;;;;;;20.00;72.80;;;;;;4257051;27;19964;-71
2021/10/30 00:54:43;;;;;;;;;;;20.00;72.90;;;;;;4258386;27;19923;-72
2021/10/30 00:56:46;;;;;;;;;;;20.00;72.90;;;;;;4262619;27;19923;-71
2021/10/30 00:58:49;;;;;;;;;;;20.00;72.90;;;;;;4252667;27;20448;-72
2021/10/30 01:00:52;;;;;;;;;;;20.00;73.00;;;;;;4264032;27;20439;-72
2021/10/30 01:02:55;;;;;;;;;;;20.00;73.00;;;;;;4257621;27;19964;-71
2021/10/30 01:04:59;;;;;;;;;;;20.00;72.90;;;;;;4258478;27;19926;-70
2021/10/30 01:07:04;;;;;;;;;;;20.00;73.00;;;;;;4264625;27;19971;-71
2021/10/30 01:09:06;;;;;;;;;;;20.00;73.00;;;;;;4259853;27;19942;-74
2021/10/30 01:11:09;;;;;;;;;;;20.00;73.10;;;;;;4248989;28;19919;-74
2021/10/30 01:13:12;;;;;;;;;;;20.00;73.10;;;;;;4253147;27;20363;-70
2021/10/30 01:15:14;;;;;;;;;;;20.00;73.10;;;;;;4254083;27;19923;-72
2021/10/30 01:17:18;;;;;;;;;;;20.00;73.70;;;;;;4247328;27;20371;-71
2021/10/30 01:19:21;;;;;;;;;;;20.00;73.20;;;;;;4233226;27;19964;-72
2021/10/30 01:21:25;;;;;;;;;;;20.00;73.10;;;;;;4263460;27;19923;-72
2021/10/30 01:23:28;;;;;;;;;;;20.00;73.20;;;;;;4258338;27;20268;-72
2021/10/30 01:25:31;;;;;;;;;;;20.00;73.20;;;;;;4256489;27;19923;-72
2021/10/30 01:27:33;;;;;;;;;;;19.90;73.20;;;;;;4263312;27;19975;-71
2021/10/30 01:29:36;;;;;;;;;;;20.00;73.10;;;;;;4253264;27;19923;-72
2021/10/30 01:31:39;;;;;;;;;;;20.00;73.20;;;;;;4266971;27;20259;-73
2021/10/30 01:33:42;;;;;;;;;;;19.90;73.20;;;;;;4261919;27;20336;-72
2021/10/30 01:35:45;;;;;;;;;;;19.90;73.20;;;;;;4258099;27;19919;-73
2021/10/30 01:37:49;;;;;;;;;;;19.90;73.30;;;;;;4263192;27;20390;-71
2021/10/30 01:39:51;;;;;;;;;;;19.90;73.20;;;;;;4261729;27;20274;-72
2021/10/30 01:41:54;;;;;;;;;;;19.90;73.20;;;;;;4248926;27;19972;-72
2021/10/30 01:43:57;;;;;;;;;;;19.90;73.30;;;;;;4252451;27;20297;-72
2021/10/30 01:46:00;;;;;;;;;;;19.90;73.30;;;;;;4258258;27;19983;-72
2021/10/30 01:48:03;;;;;;;;;;;19.90;73.30;;;;;;4249024;27;19980;-71
2021/10/30 01:50:11;;;;;;;;;;;19.90;73.30;;;;;;4260629;27;19930;-71
2021/10/30 01:52:14;;;;;;;;;;;19.90;73.30;;;;;;4248895;27;19972;-71
2021/10/30 01:54:18;;;;;;;;;;;19.90;73.40;;;;;;4253050;27;20467;-72
2021/10/30 01:56:22;;;;;;;;;;;19.90;73.40;;;;;;4259649;27;19919;-72
2021/10/30 01:58:24;;;;;;;;;;;19.80;73.40;;;;;;4250451;27;19919;-72
2021/10/30 02:00:27;;;;;;;;;;;19.90;73.40;;;;;;4260882;27;19964;-73
2021/10/30 02:02:30;;;;;;;;;;;19.90;73.50;;;;;;4249976;27;19919;-72
2021/10/30 02:04:33;;;;;;;;;;;19.80;73.40;;;;;;4251820;27;19919;-72
2021/10/30 02:06:35;;;;;;;;;;;19.80;73.40;;;;;;4258819;27;19972;-72
2021/10/30 02:08:38;;;;;;;;;;;19.80;73.40;;;;;;4249110;27;19980;-71
2021/10/30 02:10:42;;;;;;;;;;;19.80;73.50;;;;;;4260013;27;20427;-71
2021/10/30 02:12:46;;;;;;;;;;;19.80;73.50;;;;;;4251652;27;19976;-72
2021/10/30 02:14:49;;;;;;;;;;;19.80;73.50;;;;;;4250837;27;19923;-72
2021/10/30 02:16:52;;;;;;;;;;;19.80;73.60;;;;;;4259770;27;19919;-72
2021/10/30 02:18:54;;;;;;;;;;;19.80;73.60;;;;;;4251107;27;19920;-73
2021/10/30 02:20:57;;;;;;;;;;;19.80;73.60;;;;;;4261156;27;19919;-73
2021/10/30 02:23:00;;;;;;;;;;;19.80;73.60;;;;;;4251736;27;20333;-72
2021/10/30 02:25:03;;;;;;;;;;;19.80;73.70;;;;;;4252954;27;19972;-72
2021/10/30 02:27:07;;;;;;;;;;;19.80;73.70;;;;;;4254252;27;19971;-72
2021/10/30 02:29:10;;;;;;;;;;;19.80;73.70;;;;;;4266094;27;19964;-72
2021/10/30 02:31:13;;;;;;;;;;;19.80;73.70;;;;;;4254219;27;20007;-72
2021/10/30 02:33:16;;;;;;;;;;;19.80;73.70;;;;;;4263451;27;19927;-76
2021/10/30 02:35:19;;;;;;;;;;;19.80;73.70;;;;;;4264859;27;19927;-73
2021/10/30 02:37:21;;;;;;;;;;;19.80;73.70;;;;;;4258373;27;20324;-72
2021/10/30 02:39:24;;;;;;;;;;;19.80;73.70;;;;;;4249478;27;19968;-73
2021/10/30 02:41:27;;;;;;;;;;;19.80;73.80;;;;;;4259538;27;19919;-73
2021/10/30 02:43:31;;;;;;;;;;;19.80;73.80;;;;;;4255532;27;19919;-71
2021/10/30 02:45:33;;;;;;;;;;;19.80;73.90;;;;;;4253731;27;20478;-71
2021/10/30 02:47:36;;;;;;;;;;;19.80;73.90;;;;;;4263618;27;19923;-72
2021/10/30 02:49:39;;;;;;;;;;;19.80;73.90;;;;;;4252244;27;19919;-71
2021/10/30 02:51:42;;;;;;;;;;;19.80;73.80;;;;;;4259356;27;19919;-69
2021/10/30 02:53:44;;;;;;;;;;;19.80;73.90;;;;;;4256252;27;20371;-71
2021/10/30 02:55:47;;;;;;;;;;;19.70;73.80;;;;;;4253191;27;20337;-74
2021/10/30 02:57:50;;;;;;;;;;;19.70;73.80;;;;;;4262315;27;19927;-74
2021/10/30 02:59:54;;;;;;;;;;;19.80;74.00;;;;;;4252308;27;20315;-74
2021/10/30 03:01:57;;;;;;;;;;;19.70;73.90;;;;;;4256371;27;19926;-71
2021/10/30 03:04:00;;;;;;;;;;;19.70;73.80;;;;;;4267196;27;19927;-72
2021/10/30 03:06:03;;;;;;;;;;;19.70;73.80;;;;;;4268587;27;19919;-72
2021/10/30 03:08:05;;;;;;;;;;;19.70;73.90;;;;;;4264549;27;19919;-73
2021/10/30 03:10:08;;;;;;;;;;;19.70;73.90;;;;;;4254250;27;19919;-72
2021/10/30 03:12:11;;;;;;;;;;;19.70;73.90;;;;;;4258849;27;19918;-74
2021/10/30 03:14:13;;;;;;;;;;;19.70;73.90;;;;;;4259124;27;19920;-76
2021/10/30 03:16:17;;;;;;;;;;;19.70;74.00;;;;;;4252910;27;19919;-73
2021/10/30 03:18:20;;;;;;;;;;;19.70;74.00;;;;;;4263941;27;20271;-73
2021/10/30 03:20:23;;;;;;;;;;;19.70;74.10;;;;;;4252395;27;19919;-73
2021/10/30 03:22:26;;;;;;;;;;;19.70;74.00;;;;;;4256927;27;19919;-74
2021/10/30 03:24:28;;;;;;;;;;;19.70;74.00;;;;;;4260088;27;19968;-74
2021/10/30 03:26:31;;;;;;;;;;;19.70;74.10;;;;;;4251272;27;20347;-72
2021/10/30 03:28:34;;;;;;;;;;;19.70;74.10;;;;;;4256034;27;19976;-73
2021/10/30 03:30:36;;;;;;;;;;;19.70;74.10;;;;;;4265452;27;19948;-71
2021/10/30 03:32:41;;;;;;;;;;;19.60;74.10;;;;;;4260202;27;19920;-72
2021/10/30 03:34:43;;;;;;;;;;;19.70;74.30;;;;;;4256824;27;19919;-72
2021/10/30 03:36:46;;;;;;;;;;;19.70;74.20;;;;;;4251402;27;19964;-72
2021/10/30 03:38:49;;;;;;;;;;;19.60;74.20;;;;;;4263172;27;20470;-73
2021/10/30 03:40:51;;;;;;;;;;;19.60;74.10;;;;;;4247524;27;19920;-71
2021/10/30 03:42:54;;;;;;;;;;;19.60;74.20;;;;;;4250489;27;19920;-73
2021/10/30 03:44:57;;;;;;;;;;;19.60;74.10;;;;;;4256655;27;19920;-73
2021/10/30 03:47:00;;;;;;;;;;;19.60;74.10;;;;;;4247419;27;19919;-73
2021/10/30 03:49:04;;;;;;;;;;;19.60;74.20;;;;;;4258656;27;19919;-71
2021/10/30 03:51:06;;;;;;;;;;;19.60;74.10;;;;;;4264167;27;20279;-72
2021/10/30 03:53:09;;;;;;;;;;;19.60;74.20;;;;;;4243100;27;19919;-71
2021/10/30 03:55:11;;;;;;;;;;;19.60;74.20;;;;;;4254132;27;19919;-72
2021/10/30 03:57:14;;;;;;;;;;;19.60;74.10;;;;;;4264490;27;19919;-71
2021/10/30 03:59:17;;;;;;;;;;;19.60;74.20;;;;;;4241860;27;20272;-73
2021/10/30 04:01:19;;;;;;;;;;;19.60;74.20;;;;;;4248702;27;19965;-72
2021/10/30 04:03:22;;;;;;;;;;;19.60;74.20;;;;;;4248197;27;19927;-72
2021/10/30 04:05:26;;;;;;;;;;;19.60;74.20;;;;;;4258104;27;19919;-72
2021/10/30 04:07:29;;;;;;;;;;;19.60;74.30;;;;;;4246440;27;19919;-73
2021/10/30 04:09:32;;;;;;;;;;;19.60;74.20;;;;;;4256305;27;19980;-70
2021/10/30 04:11:34;;;;;;;;;;;19.60;74.10;;;;;;4249403;27;19927;-72
2021/10/30 04:13:37;;;;;;;;;;;19.60;74.20;;;;;;4248086;27;19982;-72
2021/10/30 04:15:40;;;;;;;;;;;19.60;74.30;;;;;;4263053;27;19919;-72
2021/10/30 04:17:43;;;;;;;;;;;19.60;74.20;;;;;;4263734;27;19919;-72
2021/10/30 04:19:45;;;;;;;;;;;19.60;74.20;;;;;;4254861;27;19973;-71
2021/10/30 04:21:50;;;;;;;;;;;19.60;74.20;;;;;;4261279;27;20345;-73
2021/10/30 04:23:52;;;;;;;;;;;19.60;74.30;;;;;;4263492;27;20432;-73
2021/10/30 04:25:55;;;;;;;;;;;19.60;74.30;;;;;;4252987;27;19918;-72
2021/10/30 04:27:58;;;;;;;;;;;19.60;74.20;;;;;;4263553;27;19948;-71
2021/10/30 04:30:00;;;;;;;;;;;19.60;74.30;;;;;;4255445;27;19949;-71
2021/10/30 04:32:05;;;;;;;;;;;19.50;74.20;;;;;;4259394;27;19926;-73
2021/10/30 04:34:17;;;;;;;;;;;19.50;74.30;;;;;;4261696;27;19919;-73
2021/10/30 04:36:20;;;;;;;;;;;19.50;74.30;;;;;;4252083;27;19922;-72
2021/10/30 04:38:24;;;;;;;;;;;19.50;74.20;;;;;;4255042;27;19980;-71
2021/10/30 04:40:27;;;;;;;;;;;19.50;74.30;;;;;;4255411;27;19979;-72
2021/10/30 04:42:30;;;;;;;;;;;19.50;74.30;;;;;;4263829;27;19919;-72
2021/10/30 04:44:32;;;;;;;;;;;19.50;74.30;;;;;;4261971;27;19919;-72
2021/10/30 04:46:35;;;;;;;;;;;19.50;74.40;;;;;;4252218;27;19919;-72
2021/10/30 04:48:37;;;;;;;;;;;19.50;74.30;;;;;;4263785;27;20252;-72
2021/10/30 04:50:40;;;;;;;;;;;19.50;74.40;;;;;;4259368;27;19979;-74
2021/10/30 04:52:43;;;;;;;;;;;19.50;74.40;;;;;;4252818;27;19920;-73
2021/10/30 04:54:47;;;;;;;;;;;19.50;74.50;;;;;;4251513;27;19927;-75
2021/10/30 04:56:49;;;;;;;;;;;19.50;74.40;;;;;;4260146;27;20487;-72
2021/10/30 04:58:52;;;;;;;;;;;19.50;74.40;;;;;;4246869;28;19919;-72
2021/10/30 05:00:55;;;;;;;;;;;19.50;74.60;;;;;;4235360;27;19987;-72
2021/10/30 05:02:58;;;;;;;;;;;19.50;74.60;;;;;;4252521;27;19919;-73
2021/10/30 05:05:01;;;;;;;;;;;19.50;74.60;;;;;;4251378;27;20455;-71
2021/10/30 05:07:04;;;;;;;;;;;19.50;74.60;;;;;;4255608;27;19919;-73
2021/10/30 05:09:06;;;;;;;;;;;19.50;74.70;;;;;;4267220;27;19919;-71
2021/10/30 05:11:10;;;;;;;;;;;19.50;74.70;;;;;;4262896;27;19919;-74
2021/10/30 05:13:13;;;;;;;;;;;19.40;74.70;;;;;;4262320;27;20359;-71
2021/10/30 05:15:16;;;;;;;;;;;19.50;74.70;;;;;;4267404;27;19923;-71
2021/10/30 05:17:18;;;;;;;;;;;19.40;74.70;;;;;;4256605;27;19919;-74
2021/10/30 05:19:21;;;;;;;;;;;19.40;74.60;;;;;;4267962;27;19963;-72
2021/10/30 05:21:24;;;;;;;;;;;19.40;74.70;;;;;;4261468;27;20402;-71
2021/10/30 05:23:26;;;;;;;;;;;19.40;74.70;;;;;;4258829;27;19923;-71
2021/10/30 05:25:29;;;;;;;;;;;19.40;74.70;;;;;;4266420;27;19922;-72
2021/10/30 05:27:33;;;;;;;;;;;19.40;74.80;;;;;;4253311;27;19923;-71
2021/10/30 05:29:36;;;;;;;;;;;19.40;74.80;;;;;;4266171;27;19919;-71
2021/10/30 05:31:38;;;;;;;;;;;19.40;74.70;;;;;;4261870;27;19931;-71
2021/10/30 05:33:41;;;;;;;;;;;19.40;74.90;;;;;;4257582;27;19919;-72
2021/10/30 05:35:44;;;;;;;;;;;19.40;74.80;;;;;;4266393;27;19919;-72
2021/10/30 05:37:46;;;;;;;;;;;19.40;74.80;;;;;;4257687;27;19931;-72
2021/10/30 05:39:50;;;;;;;;;;;19.50;74.80;;;;;;4266488;27;19965;-72
2021/10/30 05:41:52;;;;;;;;;;;19.40;74.90;;;;;;4262628;27;19930;-72
2021/10/30 05:43:56;;;;;;;;;;;19.40;74.80;;;;;;4256898;27;19923;-73
2021/10/30 05:45:59;;;;;;;;;;;19.40;74.90;;;;;;4266094;27;19918;-71
2021/10/30 05:48:02;;;;;;;;;;;19.40;74.90;;;;;;4261914;27;19919;-72
2021/10/30 05:50:06;;;;;;;;;;;19.40;74.90;;;;;;4249698;27;19927;-73
2021/10/30 05:52:10;;;;;;;;;;;19.40;75.00;;;;;;4251617;27;19926;-72
2021/10/30 05:54:13;;;;;;;;;;;19.40;74.90;;;;;;4258467;27;19935;-71
2021/10/30 05:56:15;;;;;;;;;;;19.40;75.00;;;;;;4248756;27;19923;-73
2021/10/30 05:58:18;;;;;;;;;;;19.40;75.00;;;;;;4260018;27;19919;-72
2021/10/30 06:00:22;;;;;;;;;;;19.40;75.00;;;;;;4251525;27;20349;-72
2021/10/30 06:02:25;;;;;;;;;;;19.40;75.00;;;;;;4234458;27;19941;-73
2021/10/30 06:04:28;;;;;;;;;;;19.40;75.00;;;;;;4259633;27;19923;-72
2021/10/30 06:06:30;;;;;;;;;;;19.40;75.10;;;;;;4248772;27;19934;-72
2021/10/30 06:08:33;;;;;;;;;;;19.30;75.20;;;;;;4249891;27;20408;-72
2021/10/30 06:10:36;;;;;;;;;;;19.30;75.20;;;;;;4263368;27;19919;-72
2021/10/30 06:12:40;;;;;;;;;;;19.40;75.20;;;;;;4264000;27;19948;-71
2021/10/30 06:14:42;;;;;;;;;;;19.40;75.20;;;;;;4254285;27;19919;-72
2021/10/30 06:16:47;;;;;;;;;;;19.30;75.10;;;;;;4266013;27;19919;-73
2021/10/30 06:18:50;;;;;;;;;;;19.40;75.40;;;;;;4255524;27;19972;-73
2021/10/30 06:20:52;;;;;;;;;;;19.30;75.10;;;;;;4262645;27;19926;-72
2021/10/30 06:22:55;;;;;;;;;;;19.30;75.20;;;;;;4263939;27;20268;-71
2021/10/30 06:24:58;;;;;;;;;;;19.40;75.40;;;;;;4253881;27;19968;-72
2021/10/30 06:27:00;;;;;;;;;;;19.30;75.40;;;;;;4265652;27;19999;-72
2021/10/30 06:29:03;;;;;;;;;;;19.30;75.40;;;;;;4259922;27;19972;-71
2021/10/30 06:31:06;;;;;;;;;;;19.30;75.30;;;;;;4251825;27;20412;-72
2021/10/30 06:33:10;;;;;;;;;;;19.30;75.40;;;;;;4249258;27;20423;-73
2021/10/30 06:35:13;;;;;;;;;;;19.30;75.50;;;;;;4259625;27;20070;-72
2021/10/30 06:37:16;;;;;;;;;;;19.30;75.50;;;;;;4251523;27;19960;-72
2021/10/30 06:39:18;;;;;;;;;;;19.30;75.50;;;;;;4256816;27;20316;-70
2021/10/30 06:41:21;;;;;;;;;;;19.30;75.50;;;;;;4252627;27;19919;-72
2021/10/30 06:43:35;;;;;;;;;;;19.30;75.50;;;;;;4249119;27;20320;-72
2021/10/30 06:45:37;;;;;;;;;;;19.30;75.50;;;;;;4259347;27;19953;-73
2021/10/30 06:47:40;;;;;;;;;;;19.30;75.50;;;;;;4249086;27;19964;-74
2021/10/30 06:49:44;;;;;;;;;;;19.30;75.50;;;;;;4257577;27;20348;-72
2021/10/30 06:51:48;;;;;;;;;;;19.30;75.60;;;;;;4252280;27;19927;-72
2021/10/30 06:53:51;;;;;;;;;;;19.30;75.60;;;;;;4249249;27;20451;-72
2021/10/30 06:55:54;;;;;;;;;;;19.30;75.80;;;;;;4259471;27;20457;-72
2021/10/30 06:58:02;;;;;;;;;;;19.30;75.70;;;;;;4247565;27;19973;-73
2021/10/30 07:00:06;;;;;;;;;;;19.30;75.60;;;;;;4256362;27;20304;-72
2021/10/30 07:02:09;;;;;;;;;;;19.30;75.60;;;;;;4251288;27;20370;-72
2021/10/30 07:04:12;;;;;;;;;;;19.30;75.70;;;;;;4248799;27;19923;-71
2021/10/30 07:06:16;;;;;;;;;;;19.30;75.70;;;;;;4259182;27;19919;-72
2021/10/30 07:08:19;;;;;;;;;;;19.30;75.70;;;;;;4247804;27;19919;-78
2021/10/30 07:10:22;;;;;;;;;;;19.30;75.70;;;;;;4255653;27;20034;-71
2021/10/30 07:12:24;;;;;;;;;;;19.30;75.80;;;;;;4251793;27;19919;-72
2021/10/30 07:14:27;;;;;;;;;;;19.30;75.80;;;;;;4248702;27;20485;-71
2021/10/30 07:16:30;;;;;;;;;;;19.30;75.80;;;;;;4259126;27;19960;-72
2021/10/30 07:18:32;;;;;;;;;;;19.30;75.90;;;;;;4247502;27;19919;-72
2021/10/30 07:20:35;;;;;;;;;;;19.30;75.90;;;;;;4254524;27;19926;-72
2021/10/30 07:22:43;;;;;;;;;;;19.30;75.90;;;;;;4253078;27;19927;-73
2021/10/30 07:24:46;;;;;;;;;;;19.30;75.90;;;;;;4248576;27;19934;-73
2021/10/30 07:26:49;;;;;;;;;;;19.30;75.90;;;;;;4260392;27;19941;-74
2021/10/30 07:28:52;;;;;;;;;;;19.30;76.00;;;;;;4250354;27;19919;-73
2021/10/30 07:30:54;;;;;;;;;;;19.30;75.90;;;;;;4254418;27;19919;-70
2021/10/30 07:32:57;;;;;;;;;;;19.30;75.90;;;;;;4253005;27;20407;-72
2021/10/30 07:35:02;;;;;;;;;;;19.30;76.00;;;;;;4249005;27;19946;-72
2021/10/30 07:37:04;;;;;;;;;;;19.30;75.90;;;;;;4258505;27;20309;-72
2021/10/30 07:39:08;;;;;;;;;;;19.30;76.10;;;;;;4251226;27;19919;-72
2021/10/30 07:41:11;;;;;;;;;;;19.30;76.10;;;;;;4253749;27;19964;-73
2021/10/30 07:43:14;;;;;;;;;;;19.30;76.10;;;;;;4253441;27;20139;-71
2021/10/30 07:45:17;;;;;;;;;;;19.20;76.10;;;;;;4248231;27;20353;-71
2021/10/30 07:47:20;;;;;;;;;;;19.30;76.10;;;;;;4258286;27;19919;-73
2021/10/30 07:49:22;;;;;;;;;;;19.20;76.10;;;;;;4246893;27;19920;-72
2021/10/30 07:51:25;;;;;;;;;;;19.30;76.10;;;;;;4252368;27;19999;-72
2021/10/30 07:53:28;;;;;;;;;;;19.30;76.20;;;;;;4254130;27;20396;-71
2021/10/30 07:55:32;;;;;;;;;;;19.20;76.20;;;;;;4247107;27;20389;-72
2021/10/30 07:57:35;;;;;;;;;;;19.30;76.20;;;;;;4258978;27;19948;-72
2021/10/30 07:59:38;;;;;;;;;;;19.20;76.10;;;;;;4246837;27;19923;-74
2021/10/30 08:01:41;;;;;;;;;;;19.20;76.20;;;;;;4251650;27;19919;-73
2021/10/30 08:03:45;;;;;;;;;;;19.30;76.10;;;;;;4254460;27;19931;-72
2021/10/30 08:05:48;;;;;;;;;;;19.20;76.20;;;;;;4247182;27;20435;-72
2021/10/30 08:07:51;;;;;;;;;;;19.30;76.30;;;;;;4259456;27;19922;-72
2021/10/30 08:09:53;;;;;;;;;;;19.20;76.10;;;;;;4247171;27;19926;-74
2021/10/30 08:11:57;;;;;;;;;;;19.20;76.20;;;;;;4250555;27;19926;-71
2021/10/30 08:14:01;;;;;;;;;;;19.20;76.30;;;;;;4254929;27;20352;-73
2021/10/30 08:16:04;;;;;;;;;;;19.20;76.20;;;;;;4246758;27;19920;-72
2021/10/30 08:18:06;;;;;;;;;;;19.20;76.30;;;;;;4258864;27;19919;-73
2021/10/30 08:20:09;;;;;;;;;;;19.20;76.10;;;;;;4246489;27;19956;-73
2021/10/30 08:22:12;;;;;;;;;;;19.20;76.20;;;;;;4250611;27;19919;-73
2021/10/30 08:24:15;;;;;;;;;;;19.20;76.30;;;;;;4255507;27;19926;-70
2021/10/30 08:26:18;;;;;;;;;;;19.20;76.30;;;;;;4265508;27;20034;-71
2021/10/30 08:28:22;;;;;;;;;;;19.30;76.50;;;;;;4263697;27;19919;-72
2021/10/30 08:30:24;;;;;;;;;;;19.20;76.30;;;;;;4247675;27;19979;-70
2021/10/30 08:32:27;;;;;;;;;;;19.20;76.40;;;;;;4249111;27;19923;-71
2021/10/30 08:34:30;;;;;;;;;;;19.20;76.40;;;;;;4256598;27;19919;-71
2021/10/30 08:36:32;;;;;;;;;;;19.30;76.30;;;;;;4248323;27;19923;-72
2021/10/30 08:38:35;;;;;;;;;;;19.30;76.40;;;;;;4263481;27;19967;-71
2021/10/30 08:40:38;;;;;;;;;;;19.30;76.40;;;;;;4251783;27;19964;-71
2021/10/30 08:42:44;;;;;;;;;;;19.20;76.40;;;;;;4250338;27;20377;-72
2021/10/30 08:44:48;;;;;;;;;;;19.20;76.40;;;;;;4260837;27;19919;-71
2021/10/30 08:46:52;;;;;;;;;;;19.30;76.40;;;;;;4249885;27;20454;-72
2021/10/30 08:48:55;;;;;;;;;;;19.30;76.50;;;;;;4260378;27;19963;-70
2021/10/30 08:50:58;;;;;;;;;;;19.30;76.50;;;;;;4251731;27;19919;-71
2021/10/30 08:53:03;;;;;;;;;;;19.30;76.50;;;;;;4250964;27;19965;-72
2021/10/30 08:55:06;;;;;;;;;;;19.30;76.50;;;;;;4260863;27;19919;-72
2021/10/30 08:57:09;;;;;;;;;;;19.30;76.50;;;;;;4249986;27;19919;-72
2021/10/30 08:59:12;;;;;;;;;;;19.30;76.50;;;;;;4259774;27;19919;-71
2021/10/30 09:01:17;;;;;;;;;;;19.30;76.60;;;;;;4252296;27;19942;-70
2021/10/30 09:03:20;;;;;;;;;;;19.20;76.60;;;;;;4251183;27;19924;-72
2021/10/30 09:05:23;;;;;;;;;;;19.20;76.50;;;;;;4255337;27;19926;-70
2021/10/30 09:07:26;;;;;;;;;;;19.30;76.70;;;;;;4266735;27;19919;-70
2021/10/30 09:09:31;;;;;;;;;;;19.30;76.80;;;;;;4257115;27;20340;-69
2021/10/30 09:11:34;;;;;;;;;;;19.30;76.80;;;;;;4264059;27;19919;-71
2021/10/30 09:13:37;;;;;;;;;;;19.20;76.90;;;;;;4266105;27;20351;-70
2021/10/30 09:15:41;;;;;;;;;;;19.30;77.20;;;;;;4262005;27;19919;-72
2021/10/30 09:17:45;;;;;;;;;;;19.30;77.10;;;;;;4267700;27;19999;-69
2021/10/30 09:19:49;;;;;;;;;;;19.30;77.00;;;;;;4257081;27;19961;-69
2021/10/30 09:22:01;;;;;;;;;;;19.40;77.30;;;;;;4260296;27;19978;-69
2021/10/30 09:24:11;;;;;;;;;;;19.40;76.90;;;;;;4250715;27;19950;-69
2021/10/30 09:26:16;;;;;;;;;;;19.50;77.10;;;;;;4263748;27;19919;-68
2021/10/30 09:28:21;;;;;;;;;;;19.50;77.10;;;;;;4249793;27;19927;-68
2021/10/30 09:30:24;;;;;;;;;;;19.50;77.30;;;;;;4260627;27;19923;-67
2021/10/30 09:32:27;;;;;;;;;;;19.50;78.90;;;;;;4250519;27;19941;-68
2021/10/30 09:34:31;;;;;;;;;;;19.60;79.80;;;;;;4250138;27;19935;-67
2021/10/30 09:36:35;;;;;;;;;;;19.60;79.50;;;;;;4265375;27;19919;-66
2021/10/30 09:38:39;;;;;;;;;;;19.60;79.70;;;;;;4254792;27;20313;-68
2021/10/30 09:40:42;;;;;;;;;;;19.60;80.20;;;;;;4259046;27;19919;-68
2021/10/30 09:42:46;;;;;;;;;;;19.60;79.70;;;;;;4231516;28;19919;-68
2021/10/30 09:45:04;;;;;;;;;;;19.60;80.10;;;;;;4249771;27;19973;-68
2021/10/30 09:47:08;;;;;;;;;;;19.60;80.50;;;;;;4256195;27;19949;-68
2021/10/30 09:49:12;;;;;;;;;;;19.60;81.00;;;;;;4247611;27;19923;-68
2021/10/30 09:51:27;;;;;;;;;;;19.60;80.90;;;;;;4251915;27;19976;-67
2021/10/30 09:53:33;;;;;;;;;;;19.60;81.30;;;;;;4248281;28;19927;-67
2021/10/30 09:55:36;;;;;;;;;;;19.60;81.60;;;;;;4253736;27;19919;-67
2021/10/30 09:57:40;;;;;;;;;;;19.60;81.70;;;;;;4254762;27;20042;-67
2021/10/30 09:59:45;;;;;;;;;;;19.60;81.00;;;;;;4232624;27;19923;-66
2021/10/30 10:01:48;;;;;;;;;;;19.60;82.50;;;;;;4244135;28;20286;-66
2021/10/30 10:03:51;;;;;;;;;;;19.60;82.80;;;;;;4257753;27;19919;-68
2021/10/30 10:05:54;;;;;;;;;;;19.60;83.10;;;;;;4261735;27;19923;-67
2021/10/30 10:07:58;;;;;;;;;;;19.60;83.70;;;;;;4258128;27;20359;-70
2021/10/30 10:10:01;;;;;;;;;;;19.60;83.10;;;;;;4253100;27;19949;-67
2021/10/30 10:12:04;;;;;;;;;;;19.60;82.30;;;;;;4255771;27;20030;-68
2021/10/30 10:14:07;;;;;;;;;;;19.60;83.20;;;;;;4238392;27;19924;-67
2021/10/30 10:16:11;;;;;;;;;;;19.60;84.20;;;;;;4256772;27;19946;-67
2021/10/30 10:18:13;;;;;;;;;;;19.60;86.30;;;;;;4258465;27;19919;-69
2021/10/30 10:20:16;;;;;;;;;;;19.60;85.40;;;;;;4255714;27;19971;-69
2021/10/30 10:22:19;;;;;;;;;;;19.60;86.00;;;;;;4254272;27;19931;-67
2021/10/30 10:24:27;;;;;;;;;;;19.60;85.90;;;;;;4256338;27;19920;-69
2021/10/30 10:26:31;;;;;;;;;;;19.60;87.00;;;;;;4256559;27;19930;-67
2021/10/30 10:28:34;;;;;;;;;;;19.70;86.70;;;;;;4259314;27;19926;-70
2021/10/30 10:30:49;;;;;;;;;;;19.70;87.90;;;;;;4255351;27;19919;-70
2021/10/30 10:33:14;;;;;;;;;;;19.70;87.90;;;;;;4255143;27;20420;-70
2021/10/30 10:35:18;;;;;;;;;;;19.70;87.70;;;;;;4240007;27;19919;-71
2021/10/30 10:37:22;;;;;;;;;;;19.70;88.40;;;;;;4242974;27;19923;-71
2021/10/30 10:39:30;;;;;;;;;;;19.70;88.50;;;;;;4249256;27;19980;-72
2021/10/30 10:41:48;;;;;;;;;;;19.70;88.00;;;;;;4251299;27;19971;-74
2021/10/30 10:43:51;;;;;;;;;;;19.70;88.60;;;;;;4248323;27;19923;-70
2021/10/30 10:45:55;;;;;;;;;;;19.80;88.00;;;;;;4246556;27;19976;-70
2021/10/30 10:48:04;;;;;;;;;;;19.80;88.40;;;;;;4252379;27;19972;-72
2021/10/30 10:50:08;;;;;;;;;;;19.80;88.50;;;;;;4264751;27;19926;-71
2021/10/30 10:52:24;;;;;;;;;;;19.90;90.00;;;;;;4261691;27;19919;-70
2021/10/30 10:54:49;;;;;;;;;;;19.90;89.90;;;;;;4253606;27;19930;-71
2021/10/30 10:56:56;;;;;;;;;;;19.90;90.20;;;;;;4250224;27;19926;-71
2021/10/30 10:59:03;;;;;;;;;;;19.90;90.00;;;;;;4252573;27;20304;-73
2021/10/30 11:01:07;;;;;;;;;;;19.90;90.10;;;;;;4263748;27;19926;-71
2021/10/30 11:03:25;;;;;;;;;;;19.90;89.60;;;;;;4238304;27;19919;-73
2021/10/30 11:05:28;;;;;;;;;;;20.00;88.80;;;;;;4262727;27;19919;-69
2021/10/30 11:07:59;;;;;;;;;;;20.00;89.80;;;;;;4242424;27;19923;-68
2021/10/30 11:10:06;;;;;;;;;;;20.10;90.40;;;;;;4257560;27;19926;-70
2021/10/30 11:12:18;;;;;;;;;;;20.20;90.60;;;;;;4250513;27;19926;-72
2021/10/30 11:14:23;;;;;;;;;;;20.40;90.40;;;;;;4257773;27;19919;-64
2021/10/30 11:16:28;;;;;;;;;;;20.40;89.50;;;;;;4259228;27;19923;-66
2021/10/30 11:18:45;;;;;;;;;;;20.50;89.70;;;;;;4257126;27;20615;-65
2021/10/30 11:21:07;;;;;;;;;;;20.50;88.50;;;;;;4255145;27;20367;-74
2021/10/30 11:23:12;;;;;;;;;;;20.60;88.60;;;;;;4244064;27;19923;-70
2021/10/30 11:25:16;;;;;;;;;;;20.70;87.90;;;;;;4249005;27;19972;-72
2021/10/30 11:27:19;;;;;;;;;;;20.80;87.90;;;;;;4247129;27;19919;-70
2021/10/30 11:29:22;;;;;;;;;;;20.80;88.50;;;;;;4252340;27;19919;-71
2021/10/30 11:31:29;;;;;;;;;;;20.90;88.10;;;;;;4243680;27;19944;-71
2021/10/30 11:33:32;;;;;;;;;;;20.90;88.00;;;;;;4258859;27;19923;-71
2021/10/30 11:35:35;;;;;;;;;;;21.00;88.00;;;;;;4256514;27;19923;-70
2021/10/30 11:37:39;;;;;;;;;;;21.10;87.40;;;;;;4248569;27;19925;-71
2021/10/30 11:39:44;;;;;;;;;;;21.10;87.40;;;;;;4259320;27;19954;-70
2021/10/30 11:41:48;;;;;;;;;;;21.20;87.40;;;;;;4256035;27;19945;-76
2021/10/30 11:43:56;;;;;;;;;;;21.20;88.00;;;;;;4241991;27;19927;-71
2021/10/30 11:46:00;;;;;;;;;;;21.30;86.30;;;;;;4234377;27;19923;-68
2021/10/30 11:48:03;;;;;;;;;;;21.30;87.30;;;;;;4247551;27;20367;-68
2021/10/30 11:50:09;;;;;;;;;;;21.40;86.40;;;;;;4258207;27;19923;-71
2021/10/30 11:52:12;;;;;;;;;;;21.40;86.10;;;;;;4227667;28;20028;-72
2021/10/30 11:54:14;;;;;;;;;;;21.40;86.00;;;;;;4244886;27;19923;-71
2021/10/30 11:56:21;;;;;;;;;;;21.50;86.40;;;;;;4255938;27;19964;-67
2021/10/30 11:58:34;;;;;;;;;;;21.50;86.80;;;;;;4246338;27;19919;-70
2021/10/30 12:00:37;;;;;;;;;;;21.60;86.20;;;;;;4250231;27;19923;-71